createdAt,value
2023-02-08T00:01:56.161Z,10.90
2023-02-08T00:04:28.752Z,11.97
2023-02-08T00:06:59.172Z,9.73
2023-02-08T00:09:29.122Z,10.53
2023-02-08T00:11:59.055Z,9.57
2023-02-08T00:14:29.093Z,10.53
2023-02-08T00:16:59.096Z,12.13
2023-02-08T00:19:31.697Z,12.07
2023-02-08T00:22:01.619Z,9.53
2023-02-08T00:24:31.881Z,10.70
2023-02-08T00:27:01.895Z,9.97
2023-02-08T00:29:31.845Z,9.07
2023-02-08T00:32:02.160Z,7.47
2023-02-08T00:34:35.266Z,7.80
2023-02-08T00:37:05.213Z,8.70
2023-02-08T00:39:35.200Z,8.83
2023-02-08T00:42:05.161Z,8.80
2023-02-08T00:44:35.953Z,8.97
2023-02-08T00:47:05.951Z,9.63
2023-02-08T00:49:38.452Z,6.53
2023-02-08T00:52:08.558Z,7.30
2023-02-08T00:54:38.806Z,7.43
2023-02-08T00:57:08.705Z,8.37
2023-02-08T00:59:38.912Z,7.23
2023-02-08T01:02:09.453Z,5.93
2023-02-08T01:04:42.063Z,6.97
2023-02-08T01:07:12.316Z,6.53
2023-02-08T01:09:42.649Z,7.03
2023-02-08T01:12:12.882Z,6.50
2023-02-08T01:14:43.836Z,7.80
2023-02-08T01:17:13.821Z,9.03
2023-02-08T01:19:46.424Z,7.67
2023-02-08T01:22:16.329Z,7.67
2023-02-08T01:24:46.652Z,7.40
2023-02-08T01:27:16.920Z,7.53
2023-02-08T01:29:47.188Z,7.30
2023-02-08T01:32:17.161Z,7.83
2023-02-08T01:34:49.708Z,7.13
2023-02-08T01:37:19.622Z,6.13
2023-02-08T01:39:50.781Z,6.50
2023-02-08T01:42:21.853Z,7.43
2023-02-08T01:45:26.350Z,7.43
2023-02-08T01:48:01.379Z,7.70
2023-02-08T01:50:39.683Z,6.87
2023-02-08T01:53:09.923Z,6.53
2023-02-08T01:55:45.940Z,6.97
2023-02-08T01:58:17.683Z,7.57
2023-02-08T02:00:48.463Z,7.33
2023-02-08T02:03:20.498Z,6.97
2023-02-08T02:05:58.710Z,6.70
2023-02-08T02:08:28.902Z,9.40
2023-02-08T02:10:59.034Z,7.47
2023-02-08T02:13:31.072Z,7.67
2023-02-08T02:16:01.393Z,7.27
2023-02-08T02:18:36.227Z,7.67
2023-02-08T02:21:28.894Z,7.63
2023-02-08T02:24:32.049Z,7.90
2023-02-08T02:27:16.980Z,7.23
2023-02-08T02:32:49.417Z,6.80
2023-02-08T02:35:27.969Z,6.53
2023-02-08T02:38:06.740Z,7.93
2023-02-08T02:40:47.516Z,6.87
2023-02-08T02:43:33.624Z,6.93
2023-02-08T02:46:10.561Z,8.43
2023-02-08T02:48:50.273Z,6.20
2023-02-08T02:51:25.177Z,6.33
2023-02-08T02:54:00.577Z,6.93
2023-02-08T02:56:35.320Z,6.73
2023-02-08T02:59:08.922Z,7.43
2023-02-08T03:01:39.379Z,7.30
2023-02-08T03:04:19.189Z,7.83
2023-02-08T03:07:05.817Z,6.10
2023-02-08T03:09:53.244Z,6.67
2023-02-08T03:12:33.270Z,7.63
2023-02-08T03:15:16.555Z,6.47
2023-02-08T03:18:01.572Z,7.30
2023-02-08T03:20:38.579Z,7.23
2023-02-08T03:23:16.983Z,7.83
2023-02-08T03:25:53.795Z,8.00
2023-02-08T03:28:27.958Z,7.93
2023-02-08T03:31:06.277Z,8.10
2023-02-08T03:33:40.246Z,7.60
2023-02-08T03:36:23.145Z,7.00
2023-02-08T03:38:55.423Z,7.87
2023-02-08T03:41:29.527Z,7.03
2023-02-08T03:44:04.154Z,6.90
2023-02-08T03:46:38.401Z,7.90
2023-02-08T03:49:14.070Z,7.47
2023-02-08T03:51:48.168Z,7.93
2023-02-08T03:54:21.880Z,7.32
2023-02-08T03:56:57.256Z,7.75
2023-02-08T03:59:30.449Z,9.33
2023-02-08T04:02:02.527Z,7.40
2023-02-08T04:04:42.258Z,8.73
2023-02-08T04:07:14.933Z,10.37
2023-02-08T04:09:45.026Z,10.13
2023-02-08T04:12:15.150Z,8.37
2023-02-08T04:14:45.523Z,8.63
2023-02-08T04:17:15.474Z,7.33
2023-02-08T04:19:45.458Z,7.37
2023-02-08T04:22:17.955Z,8.67
2023-02-08T04:24:48.204Z,7.73
2023-02-08T04:27:18.472Z,8.13
2023-02-08T04:29:48.663Z,8.63
2023-02-08T04:32:18.739Z,7.73
2023-02-08T04:34:48.748Z,8.00
2023-02-08T04:37:21.449Z,8.87
2023-02-08T04:39:51.711Z,10.30
2023-02-08T04:42:21.720Z,10.07
2023-02-08T04:44:52.140Z,8.40
2023-02-08T04:47:22.896Z,8.57
2023-02-08T04:49:52.930Z,9.30
2023-02-08T04:52:25.613Z,10.63
2023-02-08T04:54:55.855Z,9.07
2023-02-08T04:57:26.210Z,9.77
2023-02-08T04:59:56.582Z,9.50
2023-02-08T05:02:27.873Z,9.57
2023-02-08T05:04:58.253Z,9.13
2023-02-08T05:07:31.041Z,9.77
2023-02-08T05:10:01.019Z,8.83
2023-02-08T05:12:31.134Z,9.07
2023-02-08T05:15:01.510Z,11.10
2023-02-08T05:17:31.946Z,9.47
2023-02-08T05:20:01.994Z,9.80
2023-02-08T05:22:34.782Z,10.33
2023-02-08T05:25:05.093Z,10.87
2023-02-08T05:27:36.368Z,9.10
2023-02-08T05:30:07.380Z,11.67
2023-02-08T05:32:37.387Z,10.60
2023-02-08T05:35:07.818Z,13.53
2023-02-08T05:37:40.497Z,14.27
2023-02-08T05:40:13.268Z,19.33
2023-02-08T05:42:44.591Z,15.13
2023-02-08T05:45:14.967Z,15.53
2023-02-08T05:47:47.441Z,14.63
2023-02-08T05:50:17.886Z,12.10
2023-02-08T05:52:50.530Z,13.17
2023-02-08T05:55:21.009Z,10.67
2023-02-08T05:57:51.181Z,11.60
2023-02-08T06:00:21.647Z,11.47
2023-02-08T06:02:51.852Z,10.03
2023-02-08T06:05:21.910Z,12.40
2023-02-08T06:07:54.539Z,9.43
2023-02-08T06:10:24.529Z,9.83
2023-02-08T06:12:54.867Z,12.37
2023-02-08T06:15:24.941Z,10.90
2023-02-08T06:17:55.274Z,10.83
2023-02-08T06:20:25.391Z,9.13
2023-02-08T06:22:58.516Z,11.80
2023-02-08T06:25:28.639Z,11.60
2023-02-08T06:27:58.749Z,10.37
2023-02-08T06:30:28.818Z,11.43
2023-02-08T06:32:58.941Z,11.00
2023-02-08T06:35:28.960Z,9.50
2023-02-08T06:38:01.775Z,10.70
2023-02-08T06:40:31.765Z,10.33
2023-02-08T06:43:01.871Z,10.53
2023-02-08T06:45:31.910Z,10.27
2023-02-08T06:48:02.076Z,12.33
2023-02-08T06:50:32.291Z,12.53
2023-02-08T06:53:04.860Z,11.33
2023-02-08T06:55:34.994Z,11.20
2023-02-08T06:58:04.979Z,12.23
2023-02-08T07:00:35.000Z,13.50
2023-02-08T07:03:04.978Z,14.17
2023-02-08T07:05:37.354Z,12.60
2023-02-08T07:08:11.096Z,13.07
2023-02-08T07:10:44.147Z,13.02
2023-02-08T07:13:15.207Z,10.93
2023-02-08T07:15:45.205Z,11.07
2023-02-08T07:18:15.243Z,11.97
2023-02-08T07:20:45.254Z,11.67
2023-02-08T07:23:17.823Z,10.93
2023-02-08T07:25:47.884Z,11.37
2023-02-08T07:28:17.895Z,12.33
2023-02-08T07:30:47.944Z,12.60
2023-02-08T07:33:18.030Z,11.47
2023-02-08T07:35:48.350Z,12.17
2023-02-08T07:38:21.302Z,11.70
2023-02-08T07:40:51.389Z,13.13
2023-02-08T07:43:21.438Z,14.20
2023-02-08T07:45:59.575Z,10.90
2023-02-08T07:48:29.630Z,12.23
2023-02-08T07:50:59.908Z,11.17
2023-02-08T07:53:33.067Z,13.67
2023-02-08T07:56:03.092Z,12.27
2023-02-08T07:58:33.332Z,14.17
2023-02-08T08:01:19.673Z,12.17
2023-02-08T08:03:52.732Z,13.37
2023-02-08T08:06:23.623Z,12.23
2023-02-08T08:08:56.372Z,12.33
2023-02-08T08:11:26.449Z,12.00
2023-02-08T08:13:56.493Z,12.17
2023-02-08T08:16:26.530Z,12.40
2023-02-08T08:18:56.592Z,12.00
2023-02-08T08:21:26.544Z,11.80
2023-02-08T08:23:59.178Z,12.53
2023-02-08T08:26:29.841Z,11.10
2023-02-08T08:28:59.855Z,13.17
2023-02-08T08:31:30.708Z,12.77
2023-02-08T08:34:01.108Z,12.83
2023-02-08T08:36:31.160Z,13.37
2023-02-08T08:39:03.724Z,12.70
2023-02-08T08:41:33.884Z,12.07
2023-02-08T08:44:04.007Z,12.37
2023-02-08T08:46:34.117Z,12.43
2023-02-08T08:49:04.343Z,12.93
2023-02-08T08:51:35.555Z,12.70
2023-02-08T08:54:08.992Z,10.97
2023-02-08T08:56:39.004Z,13.73
2023-02-08T08:59:08.976Z,13.27
2023-02-08T09:01:40.195Z,13.87
2023-02-08T09:04:10.362Z,12.03
2023-02-08T09:06:40.918Z,11.60
2023-02-08T09:09:14.394Z,14.00
2023-02-08T09:11:44.517Z,11.00
2023-02-08T09:14:14.961Z,10.67
2023-02-08T09:16:48.075Z,12.57
2023-02-08T09:19:18.889Z,12.83
2023-02-08T09:21:49.193Z,10.50
2023-02-08T09:24:22.104Z,11.30
2023-02-08T09:26:52.180Z,11.47
2023-02-08T09:29:22.352Z,11.83
2023-02-08T09:31:52.294Z,12.47
2023-02-08T09:34:22.750Z,11.20
2023-02-08T09:36:52.931Z,10.37
2023-02-08T09:39:27.385Z,12.80
2023-02-08T09:47:23.146Z,10.10
2023-02-08T09:49:59.966Z,9.63
2023-02-08T09:52:35.912Z,12.33
2023-02-08T09:55:20.219Z,10.40
2023-02-08T09:57:51.636Z,9.40
2023-02-08T10:00:27.596Z,9.93
2023-02-08T10:03:01.979Z,10.37
2023-02-08T10:08:04.472Z,8.03
2023-02-08T10:10:46.383Z,9.73
2023-02-08T10:13:43.576Z,9.07
2023-02-08T10:16:22.488Z,9.00
2023-02-08T10:18:59.076Z,9.20
2023-02-08T10:21:42.352Z,9.97
2023-02-08T10:24:32.422Z,10.33
2023-02-08T10:27:16.147Z,7.87
2023-02-08T10:30:17.696Z,10.63
2023-02-08T10:32:55.932Z,7.77
2023-02-08T10:35:32.237Z,9.77
2023-02-08T10:38:02.202Z,10.47
2023-02-08T10:40:40.533Z,8.53
2023-02-08T10:43:24.401Z,9.57
2023-02-08T10:45:59.051Z,9.13
2023-02-08T10:48:41.185Z,11.07
2023-02-08T10:51:16.882Z,11.03
2023-02-08T10:53:46.949Z,10.60
2023-02-08T10:56:34.873Z,10.27
2023-02-08T10:59:16.795Z,9.83
2023-02-08T11:01:48.869Z,10.97
2023-02-08T11:04:20.235Z,9.40
2023-02-08T11:06:54.186Z,10.10
2023-02-08T11:09:27.593Z,9.35
2023-02-08T11:11:59.396Z,8.93
2023-02-08T11:14:46.852Z,10.63
2023-02-08T11:17:29.922Z,10.23
2023-02-08T11:20:01.879Z,10.10
2023-02-08T11:22:35.076Z,9.73
2023-02-08T11:25:07.418Z,10.17
2023-02-08T11:27:40.555Z,9.47
2023-02-08T11:30:22.014Z,9.60
2023-02-08T11:32:53.223Z,9.13
2023-02-08T11:35:24.382Z,9.67
2023-02-08T11:37:55.650Z,8.90
2023-02-08T11:40:28.107Z,8.90
2023-02-08T11:42:58.865Z,10.00
2023-02-08T11:45:33.585Z,8.07
2023-02-08T11:48:05.804Z,7.90
2023-02-08T11:50:38.687Z,7.83
2023-02-08T11:53:09.993Z,10.00
2023-02-08T11:55:40.676Z,9.10
2023-02-08T11:58:22.348Z,8.30
2023-02-08T12:01:03.720Z,10.03
2023-02-08T12:03:36.263Z,10.23
2023-02-08T12:06:14.739Z,8.18
2023-02-08T12:08:52.600Z,9.13
2023-02-08T12:11:26.247Z,8.13
2023-02-08T12:14:08.696Z,9.35
2023-02-08T12:16:53.441Z,9.38
2023-02-08T12:19:56.105Z,8.75
2023-02-08T12:22:28.119Z,8.32
2023-02-08T12:25:10.033Z,10.05
2023-02-08T12:27:45.676Z,8.68
2023-02-08T12:30:24.157Z,9.13
2023-02-08T12:33:06.940Z,7.90
2023-02-08T12:36:03.091Z,7.47
2023-02-08T12:39:18.498Z,9.10
2023-02-08T12:41:57.676Z,8.02
2023-02-08T12:44:38.724Z,10.57
2023-02-08T12:47:23.163Z,9.27
2023-02-08T12:50:00.859Z,9.27
2023-02-08T12:52:39.042Z,9.13
2023-02-08T12:55:17.467Z,8.93
2023-02-08T12:57:53.025Z,8.07
2023-02-08T13:00:24.900Z,8.73
2023-02-08T13:03:04.004Z,8.05
2023-02-08T13:05:38.309Z,9.18
2023-02-08T13:08:13.012Z,9.90
2023-02-08T13:10:44.142Z,9.20
2023-02-08T13:13:20.907Z,7.40
2023-02-08T13:15:55.564Z,9.20
2023-02-08T13:18:31.223Z,7.28
2023-02-08T13:21:08.549Z,6.80
2023-02-08T13:23:52.077Z,7.60
2023-02-08T13:26:26.755Z,8.07
2023-02-08T13:29:01.407Z,7.63
2023-02-08T13:31:36.156Z,7.80
2023-02-08T13:34:09.383Z,7.47
2023-02-08T13:36:45.187Z,7.95
2023-02-08T13:39:35.037Z,8.32
2023-02-08T13:42:07.639Z,7.53
2023-02-08T13:44:39.391Z,7.80
2023-02-08T13:47:10.587Z,8.02
2023-02-08T13:49:55.028Z,8.05
2023-02-08T13:52:48.150Z,8.77
2023-02-08T13:55:46.759Z,7.63
2023-02-08T13:58:31.552Z,7.80
2023-02-08T14:03:33.557Z,7.93
2023-02-08T14:06:05.328Z,8.10
2023-02-08T14:08:43.381Z,8.18
2023-02-08T14:11:20.237Z,7.47
2023-02-08T14:13:52.247Z,8.75
2023-02-08T14:16:33.955Z,7.65
2023-02-08T14:19:05.405Z,8.50
2023-02-08T14:21:37.380Z,9.20
2023-02-08T14:24:08.528Z,8.77
2023-02-08T14:26:41.610Z,8.73
2023-02-08T14:29:12.014Z,8.07
2023-02-08T14:31:43.957Z,8.13
2023-02-08T14:34:25.683Z,8.27
2023-02-08T14:37:02.979Z,8.00
2023-02-08T14:39:34.618Z,8.18
2023-02-08T14:42:09.044Z,8.17
2023-02-08T14:47:15.553Z,7.73
2023-02-08T14:49:47.632Z,8.17
2023-02-08T14:52:22.215Z,7.72
2023-02-08T14:54:54.986Z,8.97
2023-02-08T14:57:31.564Z,7.32
2023-02-08T15:00:02.647Z,8.63
2023-02-08T15:02:35.994Z,7.90
2023-02-08T15:05:10.194Z,8.97
2023-02-08T15:07:42.117Z,7.63
2023-02-08T15:10:16.662Z,7.87
2023-02-08T15:12:50.291Z,7.10
2023-02-08T15:15:28.340Z,7.70
2023-02-08T15:17:59.237Z,8.63
2023-02-08T15:20:31.008Z,8.48
2023-02-08T15:23:02.381Z,8.43
2023-02-08T15:25:33.974Z,8.33
2023-02-08T15:28:08.401Z,8.90
2023-02-08T15:33:13.782Z,7.57
2023-02-08T15:35:44.469Z,6.80
2023-02-08T15:38:18.267Z,7.77
2023-02-08T15:41:02.772Z,7.75
2023-02-08T15:43:36.098Z,9.07
2023-02-08T15:46:08.492Z,8.57
2023-02-08T15:48:41.293Z,6.77
2023-02-08T15:51:12.951Z,8.13
2023-02-08T15:53:44.089Z,7.57
2023-02-08T15:56:19.433Z,7.13
2023-02-08T15:58:57.941Z,7.20
2023-02-08T16:01:28.113Z,7.38
2023-02-08T16:04:02.696Z,7.07
2023-02-08T16:06:36.954Z,8.17
2023-02-08T16:09:07.512Z,7.07
2023-02-08T16:11:39.156Z,7.50
2023-02-08T16:14:17.549Z,7.10
2023-02-08T16:16:48.821Z,6.83
2023-02-08T16:19:29.749Z,7.30
2023-02-08T16:22:00.729Z,7.30
2023-02-08T16:24:30.978Z,8.10
2023-02-08T16:27:04.087Z,5.60
2023-02-08T16:29:39.245Z,8.20
2023-02-08T16:32:13.766Z,7.23
2023-02-08T16:34:44.144Z,7.50
2023-02-08T16:37:28.475Z,7.60
2023-02-08T16:39:59.566Z,12.07
2023-02-08T16:42:32.111Z,8.07
2023-02-08T16:45:17.638Z,9.23
2023-02-08T16:47:49.306Z,8.70
2023-02-08T16:50:20.909Z,8.73
2023-02-08T16:52:51.985Z,8.77
2023-02-08T16:55:23.353Z,8.80
2023-02-08T16:57:55.098Z,8.33
2023-02-08T17:00:29.578Z,7.93
2023-02-08T17:05:30.765Z,7.60
2023-02-08T17:08:01.401Z,8.27
2023-02-08T17:10:32.694Z,8.37
2023-02-08T17:13:19.383Z,8.03
2023-02-08T17:15:54.126Z,8.90
2023-02-08T17:18:25.027Z,8.98
2023-02-08T17:20:59.740Z,10.30
2023-02-08T17:23:30.265Z,10.33
2023-02-08T17:26:00.701Z,9.07
2023-02-08T17:28:31.778Z,8.87
2023-02-08T17:31:05.270Z,11.40
2023-02-08T17:33:40.076Z,8.05
2023-02-08T17:36:12.645Z,8.20
2023-02-08T17:38:43.150Z,8.87
2023-02-08T17:41:16.988Z,9.47
2023-02-08T17:43:48.852Z,8.52
2023-02-08T17:46:24.122Z,10.13
2023-02-08T17:48:54.475Z,8.77
2023-02-08T17:51:26.634Z,10.33
2023-02-08T17:53:57.179Z,9.77
2023-02-08T17:56:35.349Z,10.13
2023-02-08T17:59:06.439Z,9.13
2023-02-08T18:01:39.409Z,8.83
2023-02-08T18:04:11.252Z,9.50
2023-02-08T18:06:41.181Z,10.23
2023-02-08T18:09:11.390Z,12.33
2023-02-08T18:11:41.457Z,10.40
2023-02-08T18:14:12.196Z,11.00
2023-02-08T18:16:44.757Z,11.87
2023-02-08T18:19:14.787Z,11.97
2023-02-08T18:21:44.991Z,12.60
2023-02-08T18:24:14.970Z,14.20
2023-02-08T18:26:45.221Z,15.63
2023-02-08T18:29:15.477Z,12.00
2023-02-08T18:31:48.295Z,9.80
2023-02-08T18:34:18.999Z,13.33
2023-02-08T18:36:49.099Z,11.40
2023-02-08T18:39:23.132Z,12.73
2023-02-08T18:41:53.757Z,13.10
2023-02-08T18:44:24.202Z,11.30
2023-02-08T18:46:56.792Z,13.30
2023-02-08T18:49:27.117Z,11.53
2023-02-08T18:51:57.324Z,14.90
2023-02-08T18:54:27.709Z,14.53
2023-02-08T18:56:57.983Z,14.83
2023-02-08T18:59:28.163Z,14.47
2023-02-08T19:02:01.755Z,11.13
2023-02-08T19:04:32.278Z,13.55
2023-02-08T19:07:02.488Z,12.13
2023-02-08T19:09:32.439Z,12.83
2023-02-08T19:12:02.391Z,11.10
2023-02-08T19:14:32.444Z,11.93
2023-02-08T19:17:05.435Z,13.60
2023-02-08T19:19:35.655Z,13.03
2023-02-08T19:22:05.940Z,12.87
2023-02-08T19:24:35.870Z,14.13
2023-02-08T19:27:05.950Z,13.00
2023-02-08T19:29:36.716Z,12.87
2023-02-08T19:32:09.922Z,11.80
2023-02-08T19:34:39.900Z,13.33
2023-02-08T19:37:09.820Z,12.23
2023-02-08T19:39:40.127Z,15.23
2023-02-08T19:42:10.417Z,16.47
2023-02-08T19:44:40.918Z,14.13
2023-02-08T19:47:13.463Z,12.57
2023-02-08T19:49:43.679Z,13.33
2023-02-08T19:52:16.186Z,15.07
2023-02-08T19:54:46.425Z,17.53
2023-02-08T19:57:16.796Z,13.07
2023-02-08T19:59:47.610Z,28.33
2023-02-08T20:02:22.292Z,16.60
2023-02-08T20:04:52.656Z,19.43
2023-02-08T20:07:22.938Z,12.93
2023-02-08T20:09:53.157Z,26.23
2023-02-08T20:12:23.084Z,20.10
2023-02-08T20:14:53.329Z,22.30
2023-02-08T20:17:25.827Z,15.23
2023-02-08T20:19:55.765Z,11.87
2023-02-08T20:22:25.727Z,17.10
2023-02-08T20:24:55.834Z,12.60
2023-02-08T20:27:25.779Z,12.57
2023-02-08T20:29:58.278Z,11.90
2023-02-08T20:32:30.939Z,12.67
2023-02-08T20:35:01.142Z,12.77
2023-02-08T20:37:31.174Z,10.63
2023-02-08T20:40:01.470Z,11.07
2023-02-08T20:42:31.416Z,10.20
2023-02-08T20:45:01.661Z,10.50
2023-02-08T20:47:44.899Z,10.23
2023-02-08T20:50:19.523Z,9.82
2023-02-08T20:52:50.773Z,11.80
2023-02-08T20:55:20.889Z,10.13
2023-02-08T20:57:51.156Z,10.33
2023-02-08T21:00:26.002Z,11.23
2023-02-08T21:03:06.070Z,10.63
2023-02-08T21:05:36.428Z,10.13
2023-02-08T21:08:06.667Z,11.10
2023-02-08T21:10:39.163Z,11.67
2023-02-08T21:13:09.383Z,11.73
2023-02-08T21:15:44.422Z,9.07
2023-02-08T21:18:17.111Z,9.33
2023-02-08T21:20:47.341Z,9.43
2023-02-08T21:23:17.802Z,10.33
2023-02-08T21:25:47.835Z,9.33
2023-02-08T21:28:18.267Z,8.53
2023-02-08T21:30:48.929Z,9.30
2023-02-08T21:33:21.695Z,9.10
2023-02-08T21:35:52.133Z,12.23
2023-02-08T21:38:22.263Z,10.27
2023-02-08T21:40:52.534Z,9.90
2023-02-08T21:43:22.867Z,9.67
2023-02-08T21:45:53.193Z,9.10
2023-02-08T21:48:25.910Z,16.53
2023-02-08T21:51:08.604Z,12.50
2023-02-08T21:53:51.074Z,10.30
2023-02-08T21:56:21.076Z,8.83
2023-02-08T21:58:51.074Z,10.00
2023-02-08T22:01:21.035Z,9.27
2023-02-08T22:03:53.561Z,8.20
2023-02-08T22:06:23.599Z,10.60
2023-02-08T22:08:53.569Z,9.87
2023-02-08T22:11:23.634Z,10.77
2023-02-08T22:13:53.575Z,9.83
2023-02-08T22:16:23.703Z,8.63
2023-02-08T22:18:56.331Z,8.57
2023-02-08T22:21:26.318Z,8.37
2023-02-08T22:23:56.309Z,9.80
2023-02-08T22:26:26.392Z,8.03
2023-02-08T22:28:56.564Z,9.37
2023-02-08T22:31:27.242Z,7.87
2023-02-08T22:33:59.985Z,9.00
2023-02-08T22:36:30.126Z,8.80
2023-02-08T22:39:00.179Z,7.27
2023-02-08T22:41:30.273Z,8.03
2023-02-08T22:44:00.278Z,7.50
2023-02-08T22:46:30.565Z,9.93
2023-02-08T22:49:03.196Z,22.03
2023-02-08T22:51:33.198Z,21.63
2023-02-08T22:54:03.643Z,19.57
2023-02-08T22:56:33.634Z,20.13
2023-02-08T22:59:03.947Z,20.07
2023-02-08T23:01:33.930Z,9.60
2023-02-08T23:04:06.718Z,10.33
2023-02-08T23:06:36.965Z,9.77
2023-02-08T23:09:07.940Z,8.87
2023-02-08T23:11:37.973Z,7.90
2023-02-08T23:14:08.189Z,8.37
2023-02-08T23:16:38.254Z,9.13
2023-02-08T23:19:15.122Z,10.57
2023-02-08T23:21:45.474Z,9.30
2023-02-08T23:24:15.451Z,16.90
2023-02-08T23:26:45.393Z,9.90
2023-02-08T23:29:15.385Z,12.40
2023-02-08T23:31:45.930Z,12.57
2023-02-08T23:34:18.547Z,10.07
2023-02-08T23:36:48.601Z,10.67
2023-02-08T23:39:18.778Z,10.60
2023-02-08T23:41:48.770Z,8.00
2023-02-08T23:44:18.728Z,11.60
2023-02-08T23:46:48.704Z,9.23
2023-02-08T23:49:21.440Z,8.63
2023-02-08T23:51:51.400Z,7.40
2023-02-08T23:54:21.360Z,9.10
2023-02-08T23:56:52.019Z,7.33
2023-02-08T23:59:21.937Z,7.83
